الصفحة الرئيسية
METAR-TAF:

METAR-TAF

مطار :

مطار أنتونيو بي وان بات الدولي

Hagåtña, غوام, الولايات المتحدة

دائرة عرض: 13-29N, خط طول: 144-48E, ارتفاع: 91 متر

مراقبة الطقس الحالي

تاريخ ووقت الإصدار 1ساعة و 5 دقيقة قبل الساعة 14:54UTC
ريح 3 عقدة من الشمال الشرقي
درجة الحرارة 27°درجة مئوية
الرطوبة 100%
ضغط 1012 hPa
الرؤية: 16.1 كم
سماء صافية

METAR: PGUM 221454Z 05003KT 10SM CLR 27/27 A2988 RMK AO2 SLP109 T02720267 58008 $

زمن: 01:59 (15:59 UTC)

توقعات

تاريخ ووقت الإصدار 4ساعات و 39 دقيقة قبل الساعة 11:20UTC
التوقعات صالحة من22 الساعة 12 UTC إلى 23 الساعة 18 UTC
ريح 5 عقدة من الشرق/الشمال الشرقي
الرؤية: 10 كم
غيوم قليلة على ارتفاع 2000 قدم
غيوم متفرقة على ارتفاع 4000 قدم
من 22 الساعة 2300 UTC
ريح 8 عقدة من الشرق
الرؤية: 10 كم
غيوم متفرقة على ارتفاع 2000 قدم
غيوم متفرقة على ارتفاع 4000 قدم
زخات في الجوار

TAF: PGUM 221120Z 2212/2318 06005KT P6SM FEW020 SCT040 FM222300 10008KT P6SM VCSH SCT020 SCT040

أرصاد الطقس والتوقعات من أكثر من 4000 مطار (تقارير الطقس للمطار METAR والتنبؤ بالطقس بالمطارTAF).

المحطات المتاحة هي النقط الصفراء والحمراء على الخريطة.

حرك المؤشر فوق النقطة لمعرفة اسم المحطة.

ثم انقر لمعرفة أرصاد وتوقعات الطقس.

لتغيير الخارطة: اضغط على الأزرار الخضراء مع رمز الصليب الأسود للتكبير. على الزر الأخضر مع شرطة للتصغير، أو على الأسهم الخضراء للخرائط المجاورة.


METAR-TAF: